createdAt,value
2022-10-18T00:01:26.634Z,15.70
2022-10-18T00:03:54.764Z,15.80
2022-10-18T00:06:22.921Z,15.80
2022-10-18T00:08:51.023Z,15.80
2022-10-18T00:11:20.564Z,15.70
2022-10-18T00:13:48.727Z,15.70
2022-10-18T00:16:18.465Z,15.70
2022-10-18T00:18:48.059Z,15.70
2022-10-18T00:21:18.317Z,15.70
2022-10-18T00:23:47.179Z,15.80
2022-10-18T00:26:17.994Z,15.80
2022-10-18T00:28:52.599Z,15.80
2022-10-18T00:31:22.949Z,15.80
2022-10-18T00:33:53.406Z,15.80
2022-10-18T00:36:22.258Z,15.80
2022-10-18T00:38:50.695Z,15.80
2022-10-18T00:41:22.215Z,15.90
2022-10-18T00:43:57.239Z,15.80
2022-10-18T00:46:26.613Z,15.80
2022-10-18T00:48:57.626Z,15.80
2022-10-18T00:51:28.870Z,15.70
2022-10-18T00:53:57.020Z,15.70
2022-10-18T00:56:25.166Z,15.70
2022-10-18T00:58:53.702Z,15.70
2022-10-18T01:01:25.853Z,15.70
2022-10-18T01:03:57.106Z,15.60
2022-10-18T01:06:26.095Z,15.60
2022-10-18T01:09:10.984Z,15.50
2022-10-18T01:11:54.694Z,15.50
2022-10-18T01:14:36.027Z,15.60
2022-10-18T01:17:13.274Z,15.60
2022-10-18T01:20:19.496Z,15.50
2022-10-18T01:22:55.285Z,15.60
2022-10-18T01:25:39.121Z,15.60
2022-10-18T01:28:16.917Z,15.60
2022-10-18T01:30:51.307Z,15.60
2022-10-18T01:33:34.150Z,15.60
2022-10-18T01:36:07.501Z,15.60
2022-10-18T01:38:37.930Z,15.60
2022-10-18T01:41:11.775Z,15.70
2022-10-18T01:43:44.755Z,15.70
2022-10-18T01:46:18.530Z,15.70
2022-10-18T01:48:47.214Z,15.60
2022-10-18T01:51:15.329Z,15.60
2022-10-18T01:53:43.516Z,15.60
2022-10-18T01:56:23.703Z,15.50
2022-10-18T01:59:11.783Z,15.50
2022-10-18T02:01:48.467Z,15.50
2022-10-18T02:04:24.913Z,15.50
2022-10-18T02:06:58.809Z,15.60
2022-10-18T02:09:32.767Z,15.50
2022-10-18T02:12:02.574Z,15.50
2022-10-18T02:14:31.633Z,15.50
2022-10-18T02:17:06.768Z,15.60
2022-10-18T02:19:38.750Z,15.50
2022-10-18T02:22:09.366Z,15.60
2022-10-18T02:24:41.060Z,15.60
2022-10-18T02:27:09.583Z,15.60
2022-10-18T02:29:38.171Z,15.60
2022-10-18T02:32:12.545Z,15.60
2022-10-18T02:34:43.930Z,15.50
2022-10-18T02:37:12.754Z,15.50
2022-10-18T02:39:44.342Z,15.50
2022-10-18T02:42:13.113Z,15.50
2022-10-18T02:44:41.263Z,15.50
2022-10-18T02:47:12.032Z,15.50
2022-10-18T02:49:40.098Z,15.50
2022-10-18T02:52:08.251Z,15.30
2022-10-18T02:54:36.355Z,15.30
2022-10-18T02:57:04.501Z,15.40
2022-10-18T02:59:32.616Z,15.40
2022-10-18T03:02:00.698Z,15.40
2022-10-18T03:04:30.255Z,15.30
2022-10-18T03:06:58.361Z,15.30
2022-10-18T03:09:26.623Z,15.30
2022-10-18T03:11:54.687Z,15.30
2022-10-18T03:14:22.797Z,15.20
2022-10-18T03:16:50.913Z,15.10
2022-10-18T03:19:19.080Z,15.10
2022-10-18T03:21:48.605Z,15.10
2022-10-18T03:24:17.060Z,15.00
2022-10-18T03:26:45.198Z,15.00
2022-10-18T03:29:13.897Z,14.90
2022-10-18T03:31:42.051Z,14.80
2022-10-18T03:34:10.202Z,14.80
2022-10-18T03:36:38.831Z,14.80
2022-10-18T03:39:08.381Z,14.80
2022-10-18T03:41:36.530Z,14.80
2022-10-18T03:44:04.688Z,14.70
2022-10-18T03:46:32.869Z,14.60
2022-10-18T03:49:01.031Z,14.60
2022-10-18T03:51:29.203Z,14.50
2022-10-18T03:53:57.351Z,14.40
2022-10-18T03:56:26.932Z,14.40
2022-10-18T03:58:55.087Z,14.40
2022-10-18T04:01:23.280Z,14.40
2022-10-18T04:03:51.394Z,14.30
2022-10-18T04:06:19.501Z,14.40
2022-10-18T04:08:47.683Z,14.30
2022-10-18T04:11:16.222Z,14.30
2022-10-18T04:13:45.686Z,14.30
2022-10-18T04:16:13.801Z,14.30
2022-10-18T04:18:41.950Z,14.30
2022-10-18T04:21:10.098Z,14.30
2022-10-18T04:23:38.982Z,14.30
2022-10-18T04:26:07.545Z,14.30
2022-10-18T04:28:40.065Z,14.20
2022-10-18T04:31:10.173Z,14.30
2022-10-18T04:33:38.533Z,14.30
2022-10-18T04:36:07.031Z,14.20
2022-10-18T04:38:35.640Z,14.20
2022-10-18T04:41:04.085Z,14.20
2022-10-18T04:43:32.251Z,14.20
2022-10-18T04:46:00.492Z,14.30
2022-10-18T04:48:29.972Z,14.30
2022-10-18T04:50:58.145Z,14.40
2022-10-18T04:53:26.360Z,14.40
2022-10-18T04:55:54.482Z,14.40
2022-10-18T04:58:22.721Z,14.60
2022-10-18T05:00:51.338Z,14.50
2022-10-18T05:03:19.528Z,14.50
2022-10-18T05:06:04.447Z,14.50
2022-10-18T05:08:33.437Z,14.40
2022-10-18T05:11:01.936Z,14.40
2022-10-18T05:13:30.747Z,14.40
2022-10-18T05:15:59.567Z,14.40
2022-10-18T05:18:28.004Z,14.40
2022-10-18T05:20:58.216Z,14.40
2022-10-18T05:23:26.560Z,14.50
2022-10-18T05:25:55.210Z,14.50
2022-10-18T05:28:41.164Z,14.50
2022-10-18T05:31:11.466Z,14.60
2022-10-18T05:33:40.096Z,14.60
2022-10-18T05:36:10.994Z,14.70
2022-10-18T05:38:42.231Z,14.70
2022-10-18T05:41:10.966Z,14.80
2022-10-18T05:43:39.566Z,14.80
2022-10-18T05:46:13.744Z,14.80
2022-10-18T05:48:44.007Z,14.80
2022-10-18T05:51:13.493Z,14.90
2022-10-18T05:53:41.622Z,14.90
2022-10-18T05:56:11.947Z,14.90
2022-10-18T05:58:40.934Z,14.90
2022-10-18T06:01:10.557Z,14.90
2022-10-18T06:03:39.213Z,14.90
2022-10-18T06:06:10.202Z,15.10
2022-10-18T06:08:40.843Z,15.00
2022-10-18T06:11:10.029Z,15.10
2022-10-18T06:13:42.170Z,15.20
2022-10-18T06:16:10.949Z,15.30
2022-10-18T06:18:39.355Z,15.20
2022-10-18T06:21:08.140Z,15.40
2022-10-18T06:23:36.756Z,15.50
2022-10-18T06:26:08.559Z,15.30
2022-10-18T06:28:37.888Z,15.30
2022-10-18T06:31:07.051Z,15.30
2022-10-18T06:33:37.087Z,15.50
2022-10-18T06:36:07.233Z,15.50
2022-10-18T06:38:35.821Z,15.50
2022-10-18T06:41:05.982Z,15.70
2022-10-18T06:43:34.251Z,15.70
2022-10-18T06:46:03.365Z,15.80
2022-10-18T06:48:32.500Z,15.80
2022-10-18T06:51:02.823Z,15.80
2022-10-18T06:53:32.227Z,15.90
2022-10-18T06:56:01.739Z,16.00
2022-10-18T06:58:32.078Z,16.10
2022-10-18T07:01:00.669Z,16.20
2022-10-18T07:03:29.526Z,16.30
2022-10-18T07:06:01.681Z,16.40
2022-10-18T07:08:30.657Z,16.50
2022-10-18T07:10:58.983Z,16.60
2022-10-18T07:13:41.722Z,16.60
2022-10-18T07:16:14.231Z,16.80
2022-10-18T07:18:47.426Z,16.80
2022-10-18T07:21:17.526Z,16.80
2022-10-18T07:23:47.305Z,16.90
2022-10-18T07:26:17.548Z,17.00
2022-10-18T07:28:49.321Z,17.00
2022-10-18T07:31:17.875Z,17.10
2022-10-18T07:33:46.040Z,17.10
2022-10-18T07:36:14.591Z,17.20
2022-10-18T07:38:42.770Z,17.30
2022-10-18T07:41:13.259Z,17.30
2022-10-18T07:43:43.973Z,17.40
2022-10-18T07:46:14.224Z,17.50
2022-10-18T07:48:42.493Z,17.70
2022-10-18T07:51:11.299Z,17.80
2022-10-18T07:53:39.681Z,17.80
2022-10-18T07:56:11.697Z,17.80
2022-10-18T07:58:39.892Z,18.00
2022-10-18T08:01:09.620Z,18.20
2022-10-18T08:03:39.848Z,18.30
2022-10-18T08:06:10.081Z,18.30
2022-10-18T08:08:39.314Z,18.60
2022-10-18T08:11:09.977Z,18.70
2022-10-18T08:13:38.223Z,18.90
2022-10-18T08:16:08.152Z,19.10
2022-10-18T08:18:38.781Z,19.30
2022-10-18T08:21:09.332Z,19.40
2022-10-18T08:23:38.237Z,19.60
2022-10-18T08:26:09.303Z,19.50
2022-10-18T08:28:37.836Z,19.60
2022-10-18T08:31:06.669Z,19.80
2022-10-18T08:33:35.914Z,19.80
2022-10-18T08:36:07.468Z,19.90
2022-10-18T08:38:36.998Z,20.00
2022-10-18T08:41:24.588Z,20.00
2022-10-18T08:44:01.110Z,20.10
2022-10-18T08:46:33.175Z,20.30
2022-10-18T08:49:03.236Z,20.50
2022-10-18T08:51:38.977Z,20.50
2022-10-18T08:54:12.577Z,20.60
2022-10-18T08:56:42.853Z,20.60
2022-10-18T08:59:12.371Z,20.60
2022-10-18T09:04:31.632Z,20.50
2022-10-18T09:07:16.654Z,20.40
2022-10-18T09:09:51.934Z,20.30
2022-10-18T09:12:36.432Z,20.30
2022-10-18T09:15:31.198Z,20.30
2022-10-18T09:18:10.355Z,20.30
2022-10-18T09:20:50.918Z,20.40
2022-10-18T09:23:23.728Z,20.50
2022-10-18T09:25:57.379Z,20.50
2022-10-18T09:28:34.539Z,20.40
2022-10-18T09:31:09.680Z,20.50
2022-10-18T09:33:46.267Z,20.60
2022-10-18T09:36:20.415Z,20.60
2022-10-18T09:38:52.743Z,20.70
2022-10-18T09:41:25.529Z,20.80
2022-10-18T09:43:59.093Z,20.80
2022-10-18T09:46:32.595Z,20.80
2022-10-18T09:49:04.819Z,20.90
2022-10-18T09:51:38.142Z,20.90
2022-10-18T09:54:20.317Z,21.00
2022-10-18T09:56:51.712Z,20.80
2022-10-18T09:59:36.487Z,20.80
2022-10-18T10:02:07.865Z,20.80
2022-10-18T10:04:38.597Z,20.80
2022-10-18T10:07:12.841Z,20.80
2022-10-18T10:09:47.024Z,20.90
2022-10-18T10:12:30.108Z,20.90
2022-10-18T10:15:10.167Z,21.00
2022-10-18T10:17:39.105Z,21.10
2022-10-18T10:20:18.895Z,21.30
2022-10-18T10:22:48.414Z,21.50
2022-10-18T10:25:29.639Z,21.70
2022-10-18T10:28:03.179Z,21.80
2022-10-18T10:30:33.658Z,21.80
2022-10-18T10:33:01.804Z,21.80
2022-10-18T10:35:52.528Z,21.70
2022-10-18T10:38:26.012Z,21.80
2022-10-18T10:40:55.948Z,22.00
2022-10-18T10:43:42.038Z,22.10
2022-10-18T10:46:11.699Z,22.20
2022-10-18T10:48:50.377Z,22.30
2022-10-18T10:51:29.023Z,22.30
2022-10-18T10:54:01.865Z,22.30
2022-10-18T10:56:33.860Z,22.20
2022-10-18T10:59:12.102Z,22.20
2022-10-18T11:01:42.097Z,22.30
2022-10-18T11:04:34.699Z,22.40
2022-10-18T11:07:12.885Z,22.50
2022-10-18T11:09:54.163Z,22.70
2022-10-18T11:12:48.828Z,22.80
2022-10-18T11:15:24.905Z,23.00
2022-10-18T11:18:17.794Z,23.10
2022-10-18T11:20:54.829Z,23.10
2022-10-18T11:23:32.216Z,23.10
2022-10-18T11:26:34.496Z,23.30
2022-10-18T11:29:45.254Z,23.60
2022-10-18T11:32:23.873Z,23.80
2022-10-18T11:35:05.871Z,23.60
2022-10-18T11:37:54.829Z,23.50
2022-10-18T11:40:47.854Z,23.50
2022-10-18T11:43:38.981Z,23.40
2022-10-18T11:46:33.715Z,23.30
2022-10-18T11:49:23.816Z,23.40
2022-10-18T11:52:13.752Z,23.30
2022-10-18T11:54:57.744Z,23.30
2022-10-18T11:57:55.732Z,23.50
2022-10-18T12:00:51.649Z,23.30
2022-10-18T12:03:54.037Z,23.20
2022-10-18T12:06:31.793Z,23.30
2022-10-18T12:09:14.883Z,23.10
2022-10-18T12:11:49.389Z,23.10
2022-10-18T12:14:26.108Z,23.20
2022-10-18T12:17:20.242Z,23.20
2022-10-18T12:20:22.293Z,23.30
2022-10-18T12:22:58.511Z,23.40
2022-10-18T12:25:42.070Z,23.40
2022-10-18T12:28:24.113Z,23.60
2022-10-18T12:31:06.133Z,23.80
2022-10-18T12:33:43.939Z,24.00
2022-10-18T12:36:46.239Z,24.00
2022-10-18T12:39:37.604Z,23.80
2022-10-18T12:42:25.109Z,23.80
2022-10-18T12:45:10.514Z,23.80
2022-10-18T12:47:48.061Z,24.00
2022-10-18T12:50:58.072Z,24.30
2022-10-18T12:53:40.363Z,24.30
2022-10-18T12:56:42.816Z,24.40
2022-10-18T12:59:44.160Z,24.20
2022-10-18T13:02:38.462Z,24.30
2022-10-18T13:05:52.062Z,24.50
2022-10-18T13:08:55.171Z,24.50
2022-10-18T13:11:53.587Z,24.60
2022-10-18T13:15:12.573Z,24.80
2022-10-18T13:18:04.774Z,24.70
2022-10-18T13:20:40.003Z,25.00
2022-10-18T13:23:37.040Z,24.80
2022-10-18T13:26:26.369Z,24.60
2022-10-18T13:29:05.591Z,24.80
2022-10-18T13:34:46.390Z,25.00
2022-10-18T13:37:25.297Z,25.00
2022-10-18T13:43:31.952Z,25.00
2022-10-18T13:46:07.067Z,25.10
2022-10-18T13:48:52.006Z,25.80
2022-10-18T13:51:46.756Z,25.80
2022-10-18T13:54:38.250Z,25.50
2022-10-18T13:57:32.599Z,25.40
2022-10-18T14:00:37.364Z,25.30
2022-10-18T14:04:03.214Z,24.80
2022-10-18T14:06:39.433Z,24.20
2022-10-18T14:09:44.755Z,24.00
2022-10-18T14:12:24.757Z,24.40
2022-10-18T14:14:57.766Z,24.80
2022-10-18T14:17:35.066Z,24.90
2022-10-18T14:20:17.871Z,25.30
2022-10-18T14:22:50.811Z,25.40
2022-10-18T14:25:24.538Z,25.40
2022-10-18T14:28:08.918Z,25.30
2022-10-18T14:30:52.693Z,25.40
2022-10-18T14:33:33.998Z,25.60
2022-10-18T14:36:15.951Z,25.30
2022-10-18T14:38:50.193Z,25.20
2022-10-18T14:41:22.221Z,25.30
2022-10-18T14:43:50.870Z,25.50
2022-10-18T14:46:26.639Z,25.60
2022-10-18T14:48:57.702Z,25.60
2022-10-18T14:51:28.009Z,25.50
2022-10-18T14:53:56.877Z,25.30
2022-10-18T14:56:28.785Z,25.10
2022-10-18T14:58:59.524Z,25.10
2022-10-18T15:01:31.089Z,24.90
2022-10-18T15:04:02.405Z,24.60
2022-10-18T15:06:34.656Z,24.40
2022-10-18T15:09:05.354Z,24.30
2022-10-18T15:11:34.261Z,24.10
2022-10-18T15:14:06.845Z,23.80
2022-10-18T15:16:35.711Z,23.80
2022-10-18T15:19:06.640Z,23.80
2022-10-18T15:21:37.319Z,23.70
2022-10-18T15:24:31.145Z,23.50
2022-10-18T15:27:03.613Z,23.30
2022-10-18T15:29:36.232Z,23.20
2022-10-18T15:32:15.480Z,22.90
2022-10-18T15:34:43.612Z,22.60
2022-10-18T15:37:38.260Z,22.30
2022-10-18T15:40:34.646Z,22.10
2022-10-18T15:43:05.874Z,21.90
2022-10-18T15:45:39.522Z,21.80
2022-10-18T15:48:22.977Z,21.80
2022-10-18T15:50:52.675Z,21.60
2022-10-18T15:53:44.533Z,21.30
2022-10-18T15:56:28.649Z,21.20
2022-10-18T15:58:58.549Z,20.90
2022-10-18T16:01:33.685Z,20.80
2022-10-18T16:04:05.696Z,20.70
2022-10-18T16:06:35.332Z,20.60
2022-10-18T16:09:05.035Z,20.50
2022-10-18T16:11:33.184Z,20.40
2022-10-18T16:14:01.325Z,20.30
2022-10-18T16:16:30.520Z,19.90
2022-10-18T16:18:59.245Z,19.80
2022-10-18T16:21:30.020Z,19.70
2022-10-18T16:23:58.282Z,19.50
2022-10-18T16:26:28.932Z,19.50
2022-10-18T16:28:58.187Z,19.40
2022-10-18T16:31:28.514Z,19.30
2022-10-18T16:33:57.754Z,19.10
2022-10-18T16:36:27.218Z,19.10
2022-10-18T16:38:56.021Z,19.00
2022-10-18T16:41:24.584Z,18.90
2022-10-18T16:43:54.465Z,18.80
2022-10-18T16:46:24.290Z,18.80
2022-10-18T16:48:53.134Z,18.70
2022-10-18T16:51:21.608Z,18.60
2022-10-18T16:53:50.341Z,18.50
2022-10-18T16:56:20.945Z,18.40
2022-10-18T16:58:50.236Z,18.30
2022-10-18T17:01:21.506Z,18.30
2022-10-18T17:03:52.150Z,18.30
2022-10-18T17:06:22.241Z,18.30
2022-10-18T17:08:50.953Z,18.20
2022-10-18T17:11:19.917Z,18.20
2022-10-18T17:13:48.389Z,18.20
2022-10-18T17:16:25.287Z,18.20
2022-10-18T17:18:53.615Z,18.20
2022-10-18T17:21:21.883Z,18.00
2022-10-18T17:23:50.389Z,18.00
2022-10-18T17:26:29.371Z,18.00
2022-10-18T17:29:00.768Z,18.00
2022-10-18T17:31:31.216Z,18.00
2022-10-18T17:34:01.811Z,17.90
2022-10-18T17:36:30.836Z,17.80
2022-10-18T17:38:59.325Z,17.70
2022-10-18T17:41:27.678Z,17.50
2022-10-18T17:43:55.814Z,17.40
2022-10-18T17:46:24.315Z,17.40
2022-10-18T17:48:54.925Z,17.40
2022-10-18T17:51:23.384Z,17.40
2022-10-18T17:53:51.498Z,17.40
2022-10-18T17:56:19.660Z,17.40
2022-10-18T17:58:51.870Z,17.30
2022-10-18T18:01:22.074Z,17.30
2022-10-18T18:03:50.676Z,17.30
2022-10-18T18:06:22.028Z,17.20
2022-10-18T18:08:50.922Z,17.20
2022-10-18T18:11:19.571Z,17.20
2022-10-18T18:13:47.642Z,17.10
2022-10-18T18:16:18.242Z,17.00
2022-10-18T18:18:47.867Z,16.90
2022-10-18T18:21:16.046Z,16.80
2022-10-18T18:23:46.008Z,16.70
2022-10-18T18:26:14.575Z,16.60
2022-10-18T18:28:43.207Z,16.50
2022-10-18T18:31:13.289Z,16.50
2022-10-18T18:33:41.854Z,16.40
2022-10-18T18:36:13.588Z,16.30
2022-10-18T18:38:43.987Z,16.30
2022-10-18T18:41:18.576Z,16.20
2022-10-18T18:43:56.515Z,16.20
2022-10-18T18:46:32.739Z,16.20
2022-10-18T18:49:03.130Z,16.20
2022-10-18T18:51:53.923Z,16.20
2022-10-18T18:54:27.330Z,16.10
2022-10-18T18:57:13.612Z,16.10
2022-10-18T18:59:49.234Z,16.10
2022-10-18T19:02:22.849Z,16.00
2022-10-18T19:04:59.892Z,16.00
2022-10-18T19:07:41.817Z,16.10
2022-10-18T19:10:14.220Z,16.00
2022-10-18T19:12:47.718Z,15.90
2022-10-18T19:15:31.403Z,15.90
2022-10-18T19:17:59.520Z,15.90
2022-10-18T19:20:28.996Z,15.80
2022-10-18T19:23:04.387Z,15.80
2022-10-18T19:25:34.644Z,15.70
2022-10-18T19:28:06.793Z,15.60
2022-10-18T19:30:37.171Z,15.50
2022-10-18T19:33:11.189Z,15.50
2022-10-18T19:35:41.649Z,15.50
2022-10-18T19:38:14.192Z,15.50
2022-10-18T19:40:45.167Z,15.40
2022-10-18T19:43:27.576Z,15.40
2022-10-18T19:45:59.550Z,15.30
2022-10-18T19:48:31.343Z,15.30
2022-10-18T19:51:07.994Z,15.30
2022-10-18T19:53:45.648Z,15.30
2022-10-18T19:56:23.985Z,15.30
2022-10-18T19:59:08.978Z,15.20
2022-10-18T20:01:46.237Z,15.20
2022-10-18T20:04:17.472Z,15.10
2022-10-18T20:06:56.870Z,15.20
2022-10-18T20:09:33.925Z,15.10
2022-10-18T20:12:14.536Z,15.20
2022-10-18T20:14:44.319Z,15.20
2022-10-18T20:17:16.762Z,15.20
2022-10-18T20:19:47.792Z,15.20
2022-10-18T20:22:19.593Z,15.10
2022-10-18T20:24:52.512Z,15.00
2022-10-18T20:27:36.887Z,15.00
2022-10-18T20:30:24.212Z,15.00
2022-10-18T20:33:07.592Z,15.00
2022-10-18T20:35:42.684Z,15.00
2022-10-18T20:38:27.689Z,14.90
2022-10-18T20:41:05.331Z,14.90
2022-10-18T20:43:41.040Z,14.80
2022-10-18T20:46:14.722Z,14.80
2022-10-18T20:48:45.720Z,14.70
2022-10-18T20:51:17.408Z,14.70
2022-10-18T20:53:47.234Z,14.70
2022-10-18T20:56:20.254Z,14.60
2022-10-18T20:58:51.847Z,14.60
2022-10-18T21:01:31.051Z,14.60
2022-10-18T21:04:02.739Z,14.50
2022-10-18T21:06:50.912Z,14.50
2022-10-18T21:09:25.310Z,14.60
2022-10-18T21:12:03.361Z,14.50
2022-10-18T21:14:40.947Z,14.50
2022-10-18T21:17:18.636Z,14.40
2022-10-18T21:19:52.960Z,14.40
2022-10-18T21:22:36.625Z,14.40
2022-10-18T21:27:57.442Z,14.30
2022-10-18T21:30:28.551Z,14.30
2022-10-18T21:33:05.381Z,14.30
2022-10-18T21:35:37.467Z,14.30
2022-10-18T21:38:08.281Z,14.30
2022-10-18T21:40:45.483Z,14.20
2022-10-18T21:43:16.212Z,14.30
2022-10-18T21:45:51.480Z,14.30
2022-10-18T21:48:31.712Z,14.30
2022-10-18T21:51:06.710Z,14.30
2022-10-18T21:53:37.640Z,14.30
2022-10-18T21:56:11.152Z,14.30
2022-10-18T21:58:50.585Z,14.30
2022-10-18T22:01:21.031Z,14.30
2022-10-18T22:03:56.625Z,14.20
2022-10-18T22:06:29.556Z,14.20
2022-10-18T22:09:04.637Z,14.10
2022-10-18T22:11:39.410Z,14.10
2022-10-18T22:14:13.221Z,14.10
2022-10-18T22:16:52.743Z,14.10
2022-10-18T22:19:29.019Z,14.10
2022-10-18T22:21:59.652Z,14.10
2022-10-18T22:24:28.064Z,14.00
2022-10-18T22:27:04.300Z,14.00
2022-10-18T22:29:38.739Z,14.00
2022-10-18T22:32:09.364Z,13.90
2022-10-18T22:34:43.625Z,13.80
2022-10-18T22:37:23.061Z,13.90
2022-10-18T22:39:55.047Z,13.80
2022-10-18T22:42:23.480Z,13.80
2022-10-18T22:44:52.974Z,13.90
2022-10-18T22:47:22.502Z,13.80
2022-10-18T22:50:09.753Z,13.80
2022-10-18T22:52:53.880Z,13.80
2022-10-18T22:55:27.137Z,13.90
2022-10-18T22:58:01.242Z,13.80
2022-10-18T23:00:34.488Z,13.90
2022-10-18T23:03:09.007Z,13.90
2022-10-18T23:05:56.950Z,13.90
2022-10-18T23:08:28.608Z,13.90
2022-10-18T23:11:00.083Z,13.80
2022-10-18T23:13:39.484Z,13.80
2022-10-18T23:16:11.617Z,13.80
2022-10-18T23:18:44.046Z,13.70
2022-10-18T23:21:18.451Z,13.70
2022-10-18T23:23:52.797Z,13.70
2022-10-18T23:26:27.603Z,13.60
2022-10-18T23:29:01.376Z,13.50
2022-10-18T23:31:44.048Z,13.50
2022-10-18T23:34:14.152Z,13.50
2022-10-18T23:39:12.700Z,13.40
2022-10-18T23:41:40.770Z,13.40
2022-10-18T23:44:10.855Z,13.40
2022-10-18T23:46:39.041Z,13.40
2022-10-18T23:49:07.129Z,13.40
2022-10-18T23:51:35.181Z,13.40
2022-10-18T23:54:04.791Z,13.40
2022-10-18T23:56:32.897Z,13.40
2022-10-18T23:59:00.981Z,13.40
